createdAt,value
2019-02-15T00:01:25.798Z,2.83
2019-02-15T00:03:55.488Z,2.82
2019-02-15T00:06:25.488Z,2.81
2019-02-15T00:08:55.445Z,2.81
2019-02-15T00:11:25.141Z,2.80
2019-02-15T00:13:54.906Z,2.79
2019-02-15T00:16:25.362Z,2.76
2019-02-15T00:19:14.078Z,2.75
2019-02-15T00:21:46.230Z,2.72
2019-02-15T00:24:16.228Z,2.71
2019-02-15T00:26:46.637Z,2.69
2019-02-15T00:29:16.542Z,2.66
2019-02-15T00:31:47.377Z,2.66
2019-02-15T00:34:17.066Z,2.65
2019-02-15T00:36:46.761Z,2.64
2019-02-15T00:39:16.439Z,2.63
2019-02-15T00:41:46.117Z,2.61
2019-02-15T00:44:16.132Z,2.58
2019-02-15T00:47:03.573Z,2.56
2019-02-15T00:49:38.457Z,2.54
2019-02-15T00:52:36.342Z,2.50
2019-02-15T00:55:12.793Z,2.49
2019-02-15T00:58:01.536Z,2.49
2019-02-15T01:00:53.033Z,2.46
2019-02-15T01:03:40.550Z,2.44
2019-02-15T01:06:29.248Z,2.42
2019-02-15T01:09:17.105Z,2.41
2019-02-15T01:11:51.236Z,2.38
2019-02-15T01:14:20.930Z,2.37
2019-02-15T01:16:50.613Z,2.35
2019-02-15T01:19:20.369Z,2.33
2019-02-15T01:21:50.149Z,2.33
2019-02-15T01:24:20.040Z,2.31
2019-02-15T01:26:53.362Z,2.31
2019-02-15T01:29:35.109Z,2.29
2019-02-15T01:32:23.382Z,2.26
2019-02-15T01:35:03.032Z,2.27
2019-02-15T01:37:57.482Z,2.26
2019-02-15T01:40:46.204Z,2.20
2019-02-15T01:43:39.775Z,2.17
2019-02-15T01:46:11.918Z,2.18
2019-02-15T01:48:41.618Z,2.17
2019-02-15T01:51:11.589Z,2.17
2019-02-15T01:53:41.281Z,2.15
2019-02-15T01:56:10.954Z,2.12
2019-02-15T01:58:40.641Z,2.11
2019-02-15T02:01:10.337Z,2.12
2019-02-15T02:03:40.184Z,2.11
2019-02-15T02:06:09.868Z,2.06
2019-02-15T02:08:39.638Z,2.06
2019-02-15T02:11:09.392Z,2.06
2019-02-15T02:13:49.026Z,2.06
2019-02-15T02:16:11.481Z,2.06
2019-02-15T02:18:41.230Z,2.05
2019-02-15T02:21:10.922Z,2.02
2019-02-15T02:23:40.596Z,2.00
2019-02-15T02:26:10.357Z,1.98
2019-02-15T02:28:40.045Z,1.99
2019-02-15T02:31:10.768Z,1.97
2019-02-15T02:33:40.475Z,1.97
2019-02-15T02:36:10.247Z,1.97
2019-02-15T02:38:39.960Z,1.96
2019-02-15T02:41:09.639Z,1.94
2019-02-15T02:43:39.340Z,1.95
2019-02-15T02:46:09.095Z,1.92
2019-02-15T02:48:38.784Z,1.91
2019-02-15T02:51:08.464Z,1.89
2019-02-15T02:53:38.151Z,1.89
2019-02-15T02:56:07.846Z,1.89
2019-02-15T02:58:37.560Z,1.89
2019-02-15T03:01:07.380Z,1.86
2019-02-15T03:03:37.136Z,1.87
2019-02-15T03:06:07.563Z,1.87
2019-02-15T03:08:37.248Z,1.87
2019-02-15T03:11:07.191Z,1.88
2019-02-15T03:13:36.915Z,1.88
2019-02-15T03:16:06.896Z,1.88
2019-02-15T03:18:36.574Z,1.89
2019-02-15T03:21:06.264Z,1.88
2019-02-15T03:23:35.938Z,1.86
2019-02-15T03:26:05.738Z,1.81
2019-02-15T03:28:35.405Z,1.78
2019-02-15T03:31:05.148Z,1.77
2019-02-15T03:33:34.798Z,1.78
2019-02-15T03:36:05.773Z,1.80
2019-02-15T03:38:55.052Z,1.81
2019-02-15T03:41:33.091Z,1.82
2019-02-15T03:44:02.751Z,1.82
2019-02-15T03:46:32.466Z,1.80
2019-02-15T03:49:02.155Z,1.80
2019-02-15T03:51:31.832Z,1.78
2019-02-15T03:54:01.572Z,1.77
2019-02-15T03:56:31.263Z,1.76
2019-02-15T03:59:01.090Z,1.75
2019-02-15T04:01:30.932Z,1.73
2019-02-15T04:04:00.723Z,1.73
2019-02-15T04:06:30.667Z,1.72
2019-02-15T04:09:00.356Z,1.68
2019-02-15T04:11:30.352Z,1.63
2019-02-15T04:14:00.016Z,1.62
2019-02-15T04:16:29.869Z,1.60
2019-02-15T04:18:59.530Z,1.58
2019-02-15T04:21:29.477Z,1.57
2019-02-15T04:23:59.529Z,1.56
2019-02-15T04:26:29.205Z,1.56
2019-02-15T04:28:59.077Z,1.57
2019-02-15T04:31:28.746Z,1.56
2019-02-15T04:33:58.432Z,1.56
2019-02-15T04:36:28.132Z,1.54
2019-02-15T04:38:57.813Z,1.53
2019-02-15T04:41:27.507Z,1.52
2019-02-15T04:43:57.184Z,1.50
2019-02-15T04:46:26.944Z,1.51
2019-02-15T04:48:56.702Z,1.57
2019-02-15T04:51:26.406Z,1.59
2019-02-15T04:53:56.082Z,1.59
2019-02-15T04:56:25.769Z,1.58
2019-02-15T04:58:55.455Z,1.56
2019-02-15T05:01:25.216Z,1.55
2019-02-15T05:03:55.948Z,1.54
2019-02-15T05:06:25.732Z,1.51
2019-02-15T05:08:55.403Z,1.51
2019-02-15T05:11:25.121Z,1.49
2019-02-15T05:13:54.796Z,1.48
2019-02-15T05:16:24.718Z,1.48
2019-02-15T05:18:54.655Z,1.45
2019-02-15T05:21:24.342Z,1.46
2019-02-15T05:23:54.018Z,1.45
2019-02-15T05:26:23.702Z,1.43
2019-02-15T05:28:55.187Z,1.42
2019-02-15T05:31:25.102Z,1.42
2019-02-15T05:33:54.775Z,1.40
2019-02-15T05:36:24.742Z,1.34
2019-02-15T05:38:54.481Z,1.37
2019-02-15T05:41:24.409Z,1.36
2019-02-15T05:43:54.113Z,1.35
2019-02-15T05:46:23.804Z,1.32
2019-02-15T05:48:53.519Z,1.32
2019-02-15T05:51:23.207Z,1.30
2019-02-15T05:53:53.144Z,1.30
2019-02-15T05:56:23.111Z,1.29
2019-02-15T05:58:53.029Z,1.29
2019-02-15T06:01:24.304Z,1.24
2019-02-15T06:03:53.969Z,1.20
2019-02-15T06:06:25.197Z,1.17
2019-02-15T06:08:54.887Z,1.15
2019-02-15T06:11:24.559Z,1.14
2019-02-15T06:13:54.259Z,1.14
2019-02-15T06:16:23.956Z,1.13
2019-02-15T06:18:53.901Z,1.13
2019-02-15T06:21:23.595Z,1.14
2019-02-15T06:23:53.276Z,1.14
2019-02-15T06:26:22.976Z,1.13
2019-02-15T06:28:52.691Z,1.14
2019-02-15T06:31:22.380Z,1.14
2019-02-15T06:33:52.381Z,1.13
2019-02-15T06:36:22.347Z,1.12
2019-02-15T06:38:52.026Z,1.10
2019-02-15T06:41:21.750Z,1.10
2019-02-15T06:43:51.661Z,1.09
2019-02-15T06:46:21.329Z,1.07
2019-02-15T06:48:51.017Z,1.09
2019-02-15T06:51:20.699Z,1.10
2019-02-15T06:53:50.387Z,1.11
2019-02-15T06:56:20.128Z,1.10
2019-02-15T06:59:08.975Z,1.08
2019-02-15T07:02:03.999Z,1.05
2019-02-15T07:04:50.312Z,1.06
2019-02-15T07:07:19.996Z,1.05
2019-02-15T07:09:49.924Z,1.04
2019-02-15T07:12:19.600Z,1.03
2019-02-15T07:14:49.357Z,1.02
2019-02-15T07:17:19.044Z,1.02
2019-02-15T07:19:48.728Z,1.03
2019-02-15T07:22:18.402Z,1.03
2019-02-15T07:24:48.158Z,1.02
2019-02-15T07:27:18.008Z,1.02
2019-02-15T07:29:47.697Z,1.05
2019-02-15T07:32:17.393Z,1.07
2019-02-15T07:34:47.333Z,1.09
2019-02-15T07:37:17.020Z,1.10
2019-02-15T07:39:46.794Z,1.13
2019-02-15T07:42:16.452Z,1.16
2019-02-15T07:44:46.629Z,1.20
2019-02-15T07:47:16.315Z,1.22
2019-02-15T07:49:45.994Z,1.24
2019-02-15T07:52:15.913Z,1.25
2019-02-15T07:54:45.611Z,1.29
2019-02-15T07:57:15.301Z,1.33
2019-02-15T07:59:44.968Z,1.37
2019-02-15T08:02:14.958Z,1.40
2019-02-15T08:04:44.653Z,1.43
2019-02-15T08:07:14.352Z,1.46
2019-02-15T08:09:44.027Z,1.49
2019-02-15T08:12:13.712Z,1.50
2019-02-15T08:14:43.402Z,1.53
2019-02-15T08:17:13.082Z,1.55
2019-02-15T08:19:42.759Z,1.59
2019-02-15T08:22:12.445Z,1.62
2019-02-15T08:24:42.419Z,1.66
2019-02-15T08:27:12.095Z,1.72
2019-02-15T08:29:41.795Z,1.75
2019-02-15T08:32:11.483Z,1.78
2019-02-15T08:34:41.399Z,1.84
2019-02-15T08:37:11.205Z,1.88
2019-02-15T08:39:40.871Z,1.93
2019-02-15T08:42:10.537Z,1.98
2019-02-15T08:44:40.225Z,2.05
2019-02-15T08:47:09.961Z,2.11
2019-02-15T08:49:39.662Z,2.28
2019-02-15T08:52:09.444Z,2.28
2019-02-15T08:54:39.089Z,2.45
2019-02-15T08:57:08.948Z,2.63
2019-02-15T08:59:38.878Z,2.76
2019-02-15T09:02:20.566Z,2.88
2019-02-15T09:04:50.332Z,2.98
2019-02-15T09:07:20.018Z,3.12
2019-02-15T09:09:49.708Z,3.23
2019-02-15T09:12:19.462Z,3.41
2019-02-15T09:14:49.669Z,3.56
2019-02-15T09:17:19.598Z,3.72
2019-02-15T09:19:49.548Z,3.87
2019-02-15T09:22:19.228Z,4.04
2019-02-15T09:24:48.908Z,4.17
2019-02-15T09:27:27.826Z,4.30
2019-02-15T09:30:00.587Z,4.45
2019-02-15T09:32:30.348Z,4.63
2019-02-15T09:35:00.044Z,4.75
2019-02-15T09:37:29.719Z,4.82
2019-02-15T09:39:59.390Z,4.87
2019-02-15T09:42:29.208Z,4.95
2019-02-15T09:44:59.865Z,5.04
2019-02-15T09:47:29.546Z,5.12
2019-02-15T09:49:59.258Z,5.23
2019-02-15T09:52:28.929Z,5.34
2019-02-15T09:54:58.653Z,5.42
2019-02-15T09:57:28.322Z,5.52
2019-02-15T09:59:58.000Z,5.64
2019-02-15T10:02:27.664Z,5.73
2019-02-15T10:04:57.577Z,5.84
2019-02-15T10:07:27.322Z,5.99
2019-02-15T10:09:57.550Z,6.20
2019-02-15T10:12:27.211Z,6.38
2019-02-15T10:14:56.888Z,6.55
2019-02-15T10:17:26.562Z,6.69
2019-02-15T10:19:56.226Z,6.88
2019-02-15T10:22:25.898Z,7.11
2019-02-15T10:24:55.562Z,7.30
2019-02-15T10:27:25.234Z,7.48
2019-02-15T10:29:55.104Z,7.62
2019-02-15T10:32:24.792Z,7.75
2019-02-15T10:34:54.453Z,7.87
2019-02-15T10:37:24.130Z,7.97
2019-02-15T10:39:53.801Z,8.10
2019-02-15T10:42:23.466Z,8.32
2019-02-15T10:44:53.174Z,8.49
2019-02-15T10:47:25.244Z,8.68
2019-02-15T10:49:54.541Z,8.82
2019-02-15T10:52:24.215Z,9.01
2019-02-15T10:54:53.919Z,9.26
2019-02-15T10:57:23.680Z,9.40
2019-02-15T10:59:53.599Z,9.47
2019-02-15T11:02:23.276Z,9.63
2019-02-15T11:04:53.127Z,9.80
2019-02-15T11:07:22.798Z,9.96
2019-02-15T11:09:52.461Z,10.06
2019-02-15T11:12:22.146Z,10.20
2019-02-15T11:14:51.834Z,10.43
2019-02-15T11:17:21.802Z,10.66
2019-02-15T11:19:51.681Z,10.85
2019-02-15T11:22:21.340Z,11.08
2019-02-15T11:24:51.024Z,11.29
2019-02-15T11:27:20.697Z,11.51
2019-02-15T11:29:50.372Z,11.71
2019-02-15T11:32:20.081Z,11.85
2019-02-15T11:34:49.745Z,12.08
2019-02-15T11:37:19.415Z,12.19
2019-02-15T11:39:49.263Z,12.36
2019-02-15T11:42:18.943Z,12.55
2019-02-15T11:44:48.609Z,12.76
2019-02-15T11:47:18.281Z,12.94
2019-02-15T11:49:48.205Z,13.10
2019-02-15T11:52:17.889Z,13.27
2019-02-15T11:54:48.103Z,13.51
2019-02-15T11:57:18.788Z,13.76
2019-02-15T11:59:48.476Z,13.93
2019-02-15T12:02:18.155Z,14.09
2019-02-15T12:04:48.100Z,14.23
2019-02-15T12:07:18.735Z,14.43
2019-02-15T12:09:48.411Z,14.58
2019-02-15T12:12:18.149Z,14.73
2019-02-15T12:14:48.075Z,14.85
2019-02-15T12:17:17.743Z,14.96
2019-02-15T12:19:47.685Z,15.11
2019-02-15T12:22:18.345Z,15.26
2019-02-15T12:24:48.024Z,15.38
2019-02-15T12:27:17.921Z,15.46
2019-02-15T12:29:47.550Z,15.53
2019-02-15T12:32:17.261Z,15.64
2019-02-15T12:34:47.003Z,15.72
2019-02-15T12:37:17.117Z,15.82
2019-02-15T12:39:47.759Z,15.92
2019-02-15T12:42:19.247Z,16.00
2019-02-15T12:44:49.150Z,16.07
2019-02-15T12:47:19.002Z,16.12
2019-02-15T12:49:48.668Z,16.15
2019-02-15T12:52:18.415Z,16.25
2019-02-15T12:54:48.097Z,16.32
2019-02-15T12:57:17.829Z,16.38
2019-02-15T12:59:47.525Z,16.44
2019-02-15T13:02:17.358Z,16.42
2019-02-15T13:04:47.040Z,16.41
2019-02-15T13:07:16.974Z,16.47
2019-02-15T13:09:47.616Z,16.53
2019-02-15T13:12:17.360Z,16.57
2019-02-15T13:14:47.041Z,16.59
2019-02-15T13:17:24.436Z,16.54
2019-02-15T13:19:48.227Z,16.50
2019-02-15T13:22:20.060Z,16.55
2019-02-15T13:24:49.429Z,16.66
2019-02-15T13:27:19.112Z,16.77
2019-02-15T13:29:49.240Z,16.87
2019-02-15T13:32:18.901Z,16.95
2019-02-15T13:34:48.566Z,16.99
2019-02-15T13:37:18.254Z,16.99
2019-02-15T13:39:47.960Z,17.00
2019-02-15T13:42:17.648Z,17.05
2019-02-15T13:44:47.332Z,17.05
2019-02-15T13:47:17.085Z,17.05
2019-02-15T13:49:47.020Z,17.09
2019-02-15T13:52:17.700Z,17.12
2019-02-15T13:54:47.367Z,17.18
2019-02-15T13:57:17.038Z,17.20
2019-02-15T13:59:46.734Z,17.17
2019-02-15T14:02:16.400Z,17.16
2019-02-15T14:04:46.081Z,17.20
2019-02-15T14:07:19.990Z,17.25
2019-02-15T14:09:50.024Z,17.27
2019-02-15T14:12:19.711Z,17.28
2019-02-15T14:14:50.629Z,17.24
2019-02-15T14:17:20.312Z,17.23
2019-02-15T14:19:49.971Z,17.26
2019-02-15T14:22:19.673Z,17.25
2019-02-15T14:24:49.346Z,17.27
2019-02-15T14:27:19.035Z,17.35
2019-02-15T14:29:48.994Z,17.36
2019-02-15T14:32:18.675Z,17.41
2019-02-15T14:34:48.655Z,17.40
2019-02-15T14:37:18.348Z,17.41
2019-02-15T14:39:48.014Z,17.41
2019-02-15T14:42:17.678Z,17.41
2019-02-15T14:44:47.365Z,17.40
2019-02-15T14:47:18.074Z,17.40
2019-02-15T14:49:47.758Z,17.38
2019-02-15T14:52:17.451Z,17.39
2019-02-15T14:54:47.151Z,17.35
2019-02-15T14:57:16.856Z,17.32
2019-02-15T14:59:46.557Z,17.27
2019-02-15T15:02:16.227Z,17.26
2019-02-15T15:04:45.993Z,17.25
2019-02-15T15:07:15.667Z,17.24
2019-02-15T15:09:45.377Z,17.20
2019-02-15T15:12:15.323Z,17.17
2019-02-15T15:14:44.989Z,17.12
2019-02-15T15:17:14.659Z,17.11
2019-02-15T15:19:44.335Z,17.06
2019-02-15T15:22:14.013Z,17.03
2019-02-15T15:24:43.741Z,16.95
2019-02-15T15:27:13.489Z,16.86
2019-02-15T15:29:43.176Z,16.82
2019-02-15T15:32:12.852Z,16.77
2019-02-15T15:34:42.780Z,16.75
2019-02-15T15:37:16.523Z,16.67
2019-02-15T15:39:43.863Z,16.61
2019-02-15T15:42:13.556Z,16.53
2019-02-15T15:44:43.256Z,16.47
2019-02-15T15:47:12.944Z,16.42
2019-02-15T15:49:42.881Z,16.36
2019-02-15T15:52:12.577Z,16.29
2019-02-15T15:54:42.324Z,16.21
2019-02-15T15:57:12.045Z,16.14
2019-02-15T15:59:41.954Z,16.06
2019-02-15T16:02:11.626Z,15.95
2019-02-15T16:04:41.319Z,15.90
2019-02-15T16:07:11.006Z,15.80
2019-02-15T16:09:40.674Z,15.70
2019-02-15T16:12:10.341Z,15.66
2019-02-15T16:14:41.553Z,15.51
2019-02-15T16:17:12.200Z,15.51
2019-02-15T16:19:49.445Z,15.45
2019-02-15T16:22:14.746Z,15.39
2019-02-15T16:24:44.433Z,15.35
2019-02-15T16:27:14.101Z,15.28
2019-02-15T16:29:43.772Z,15.21
2019-02-15T16:32:13.458Z,15.11
2019-02-15T16:34:43.113Z,14.97
2019-02-15T16:37:13.051Z,14.83
2019-02-15T16:39:42.748Z,14.69
2019-02-15T16:42:12.723Z,14.57
2019-02-15T16:44:42.368Z,14.42
2019-02-15T16:47:12.038Z,14.30
2019-02-15T16:49:41.718Z,14.19
2019-02-15T16:52:11.398Z,14.02
2019-02-15T16:54:41.919Z,13.88
2019-02-15T16:57:11.634Z,13.80
2019-02-15T16:59:41.415Z,13.75
2019-02-15T17:02:11.184Z,13.64
2019-02-15T17:04:40.885Z,13.53
2019-02-15T17:07:10.538Z,13.42
2019-02-15T17:09:40.454Z,13.29
2019-02-15T17:12:10.363Z,13.16
2019-02-15T17:14:40.031Z,13.03
2019-02-15T17:17:09.707Z,12.91
2019-02-15T17:19:39.389Z,12.75
2019-02-15T17:22:09.119Z,12.61
2019-02-15T17:24:39.027Z,12.44
2019-02-15T17:27:08.696Z,12.24
2019-02-15T17:29:38.366Z,12.09
2019-02-15T17:32:08.052Z,11.98
2019-02-15T17:34:37.744Z,11.84
2019-02-15T17:37:07.417Z,11.71
2019-02-15T17:39:37.119Z,11.61
2019-02-15T17:42:06.812Z,11.51
2019-02-15T17:44:36.459Z,11.42
2019-02-15T17:47:06.371Z,11.39
2019-02-15T17:49:36.203Z,11.27
2019-02-15T17:52:05.955Z,11.09
2019-02-15T17:54:35.657Z,10.97
2019-02-15T17:57:05.335Z,10.88
2019-02-15T17:59:36.210Z,10.76
2019-02-15T18:02:07.675Z,10.66
2019-02-15T18:04:37.539Z,10.56
2019-02-15T18:07:07.222Z,10.45
2019-02-15T18:09:36.912Z,10.35
2019-02-15T18:12:06.589Z,10.24
2019-02-15T18:14:36.262Z,10.17
2019-02-15T18:17:05.954Z,10.07
2019-02-15T18:19:35.625Z,9.97
2019-02-15T18:22:05.305Z,9.88
2019-02-15T18:24:34.975Z,9.80
2019-02-15T18:27:05.214Z,9.72
2019-02-15T18:29:34.894Z,9.64
2019-02-15T18:32:04.915Z,9.56
2019-02-15T18:34:34.590Z,9.47
2019-02-15T18:37:04.824Z,9.39
2019-02-15T18:39:34.543Z,9.31
2019-02-15T18:42:05.048Z,9.23
2019-02-15T18:44:34.725Z,9.17
2019-02-15T18:47:05.413Z,9.08
2019-02-15T18:49:36.041Z,9.01
2019-02-15T18:52:05.815Z,8.90
2019-02-15T18:54:35.479Z,8.81
2019-02-15T18:57:05.157Z,8.73
2019-02-15T18:59:34.846Z,8.68
2019-02-15T19:02:05.192Z,8.61
2019-02-15T19:04:35.041Z,8.53
2019-02-15T19:07:06.038Z,8.49
2019-02-15T19:09:54.094Z,8.42
2019-02-15T19:12:23.903Z,8.37
2019-02-15T19:14:53.575Z,8.28
2019-02-15T19:17:23.245Z,8.23
2019-02-15T19:19:53.178Z,8.16
2019-02-15T19:22:23.176Z,8.10
2019-02-15T19:24:52.858Z,8.05
2019-02-15T19:27:22.520Z,7.98
2019-02-15T19:29:52.270Z,7.94
2019-02-15T19:32:21.964Z,7.86
2019-02-15T19:34:51.643Z,7.77
2019-02-15T19:37:22.280Z,7.69
2019-02-15T19:39:52.035Z,7.61
2019-02-15T19:42:22.545Z,7.56
2019-02-15T19:44:52.445Z,7.48
2019-02-15T19:47:22.120Z,7.41
2019-02-15T19:49:51.797Z,7.35
2019-02-15T19:52:21.979Z,7.31
2019-02-15T19:54:51.752Z,7.27
2019-02-15T19:57:21.390Z,7.23
2019-02-15T19:59:53.611Z,7.17
2019-02-15T20:02:22.690Z,7.11
2019-02-15T20:04:52.365Z,7.06
2019-02-15T20:07:22.131Z,7.01
2019-02-15T20:09:51.803Z,6.97
2019-02-15T20:12:21.650Z,6.92
2019-02-15T20:14:51.873Z,6.88
2019-02-15T20:17:21.530Z,6.82
2019-02-15T20:19:51.212Z,6.74
2019-02-15T20:22:20.868Z,6.66
2019-02-15T20:24:50.779Z,6.58
2019-02-15T20:27:20.448Z,6.52
2019-02-15T20:29:50.362Z,6.47
2019-02-15T20:32:20.023Z,6.44
2019-02-15T20:34:49.947Z,6.40
2019-02-15T20:37:19.629Z,6.35
2019-02-15T20:39:49.303Z,6.30
2019-02-15T20:42:19.000Z,6.24
2019-02-15T20:44:48.678Z,6.19
2019-02-15T20:47:18.349Z,6.15
2019-02-15T20:49:57.496Z,6.16
2019-02-15T20:52:20.497Z,6.18
2019-02-15T20:54:50.172Z,6.17
2019-02-15T20:57:19.868Z,6.13
2019-02-15T20:59:51.927Z,6.03
2019-02-15T21:02:21.607Z,5.97
2019-02-15T21:04:51.291Z,5.91
2019-02-15T21:07:21.029Z,5.87
2019-02-15T21:09:50.706Z,5.81
2019-02-15T21:12:20.383Z,5.76
2019-02-15T21:14:50.048Z,5.74
2019-02-15T21:17:19.730Z,5.71
2019-02-15T21:19:49.654Z,5.69
2019-02-15T21:22:19.352Z,5.66
2019-02-15T21:24:49.034Z,5.64
2019-02-15T21:27:18.714Z,5.63
2019-02-15T21:29:48.633Z,5.60
2019-02-15T21:32:18.302Z,5.57
2019-02-15T21:34:48.068Z,5.52
2019-02-15T21:37:17.920Z,5.51
2019-02-15T21:39:47.589Z,5.47
2019-02-15T21:42:17.284Z,5.42
2019-02-15T21:44:47.265Z,5.41
2019-02-15T21:47:16.961Z,5.37
2019-02-15T21:49:46.631Z,5.34
2019-02-15T21:52:16.304Z,5.28
2019-02-15T21:54:45.984Z,5.25
2019-02-15T21:57:15.725Z,5.21
2019-02-15T21:59:45.407Z,5.18
2019-02-15T22:02:15.073Z,5.16
2019-02-15T22:04:44.764Z,5.10
2019-02-15T22:07:14.449Z,5.09
2019-02-15T22:09:44.168Z,5.07
2019-02-15T22:12:13.849Z,5.06
2019-02-15T22:14:43.928Z,5.05
2019-02-15T22:17:13.603Z,5.00
2019-02-15T22:19:43.286Z,4.97
2019-02-15T22:22:12.957Z,4.92
2019-02-15T22:24:42.633Z,4.88
2019-02-15T22:27:12.299Z,4.85
2019-02-15T22:29:42.529Z,4.83
2019-02-15T22:32:12.460Z,4.77
2019-02-15T22:34:42.140Z,4.70
2019-02-15T22:37:11.822Z,4.65
2019-02-15T22:39:41.555Z,4.62
2019-02-15T22:42:11.241Z,4.58
2019-02-15T22:44:41.233Z,4.54
2019-02-15T22:47:11.151Z,4.46
2019-02-15T22:49:43.257Z,4.42
2019-02-15T22:52:12.212Z,4.38
2019-02-15T22:54:41.890Z,4.35
2019-02-15T22:57:11.818Z,4.32
2019-02-15T22:59:41.477Z,4.29
2019-02-15T23:02:11.902Z,4.27
2019-02-15T23:04:41.657Z,4.24
2019-02-15T23:07:12.360Z,4.21
2019-02-15T23:09:42.055Z,4.16
2019-02-15T23:12:11.755Z,4.13
2019-02-15T23:14:41.422Z,4.12
2019-02-15T23:17:11.099Z,4.11
2019-02-15T23:19:40.766Z,4.11
2019-02-15T23:22:10.461Z,4.09
2019-02-15T23:24:40.137Z,4.07
2019-02-15T23:27:09.825Z,4.03
2019-02-15T23:29:39.496Z,4.00
2019-02-15T23:32:09.240Z,3.98
2019-02-15T23:34:38.910Z,3.96
2019-02-15T23:37:09.636Z,3.95
2019-02-15T23:39:39.311Z,3.92
2019-02-15T23:42:08.978Z,3.90
2019-02-15T23:44:38.658Z,3.89
2019-02-15T23:47:08.339Z,3.88
2019-02-15T23:49:38.009Z,3.86
2019-02-15T23:52:07.848Z,3.85
2019-02-15T23:54:37.518Z,3.85
2019-02-15T23:57:07.204Z,3.82
2019-02-15T23:59:36.888Z,3.83
